Time;durP1;ratioP1;P1;durP2;ratioP2;P2;SDS_P1;SDS_P2;PMS_P1;PMS_P2;Temp;Humidity;BMP_temperature;BMP_pressure;BME280_temperature;BME280_humidity;BME280_pressure;Samples;Min_cycle;Max_cycle;Signal;HPM_P1;HPM_P2
2023/04/08 00:01:35;;;;;;;63.57;18.20;;;;;;;;;;5033609;28;20407;-44
2023/04/08 00:04:01;;;;;;;51.03;17.10;;;;;;;;;;5029890;28;20422;-44
2023/04/08 00:06:27;;;;;;;54.80;14.70;;;;;;;;;;5032566;28;20570;-42
2023/04/08 00:08:53;;;;;;;58.70;14.85;;;;;;;;;;5033348;28;20196;-43
2023/04/08 00:11:20;;;;;;;31.33;12.60;;;;;;;;;;5038009;28;20214;-43
2023/04/08 00:13:46;;;;;;;38.28;13.32;;;;;;;;;;5034833;28;20468;-44
2023/04/08 00:16:11;;;;;;;30.60;11.50;;;;;;;;;;5028222;28;20247;-44
2023/04/08 00:18:38;;;;;;;28.33;13.17;;;;;;;;;;5033265;28;20442;-44
2023/04/08 00:21:04;;;;;;;20.42;11.68;;;;;;;;;;5033441;28;20434;-44
2023/04/08 00:23:30;;;;;;;52.13;12.20;;;;;;;;;;5035485;28;20226;-45
2023/04/08 00:25:56;;;;;;;21.80;12.13;;;;;;;;;;5033352;28;20713;-43
2023/04/08 00:28:22;;;;;;;22.60;14.20;;;;;;;;;;5033161;28;21024;-43
2023/04/08 00:30:48;;;;;;;39.13;13.77;;;;;;;;;;5028295;28;20998;-43
2023/04/08 00:33:14;;;;;;;37.03;13.43;;;;;;;;;;5029504;28;20483;-43
2023/04/08 00:35:40;;;;;;;36.92;14.38;;;;;;;;;;5034418;28;20505;-43
2023/04/08 00:38:06;;;;;;;50.63;12.37;;;;;;;;;;5036048;28;20718;-43
2023/04/08 00:40:33;;;;;;;24.95;12.70;;;;;;;;;;5039214;28;21012;-43
2023/04/08 00:42:59;;;;;;;34.50;13.25;;;;;;;;;;5032359;28;20665;-43
2023/04/08 00:45:25;;;;;;;17.27;11.30;;;;;;;;;;5034814;28;20214;-44
2023/04/08 00:47:51;;;;;;;25.30;10.83;;;;;;;;;;5030855;28;20207;-45
2023/04/08 00:50:19;;;;;;;55.27;13.30;;;;;;;;;;5032763;28;20401;-43
2023/04/08 00:52:45;;;;;;;54.05;11.98;;;;;;;;;;5032806;28;20402;-44
2023/04/08 00:55:11;;;;;;;37.57;13.10;;;;;;;;;;5039194;28;20171;-43
2023/04/08 00:57:37;;;;;;;33.93;13.30;;;;;;;;;;5032528;28;20430;-44
2023/04/08 01:00:05;;;;;;;97.25;15.63;;;;;;;;;;5034429;28;20414;-43
2023/04/08 01:02:35;;;;;;;60.83;16.05;;;;;;;;;;5030251;28;20178;-43
2023/04/08 01:05:04;;;;;;;33.20;14.68;;;;;;;;;;5025045;28;20171;-43
2023/04/08 01:07:32;;;;;;;128.38;14.38;;;;;;;;;;5036896;28;20233;-44
2023/04/08 01:10:01;;;;;;;152.00;16.27;;;;;;;;;;5023619;28;20207;-44
2023/04/08 01:12:31;;;;;;;30.90;12.48;;;;;;;;;;5033692;28;20182;-44
2023/04/08 01:15:02;;;;;;;84.65;14.00;;;;;;;;;;5024977;28;20168;-44
2023/04/08 01:17:29;;;;;;;56.55;12.40;;;;;;;;;;5035452;28;20199;-44
2023/04/08 01:19:56;;;;;;;53.78;15.13;;;;;;;;;;5032316;28;20250;-44
2023/04/08 01:22:24;;;;;;;72.22;14.40;;;;;;;;;;5037088;28;20175;-44
2023/04/08 01:24:52;;;;;;;97.90;14.20;;;;;;;;;;5040159;28;20558;-44
2023/04/08 01:27:18;;;;;;;103.28;15.77;;;;;;;;;;5033612;28;20207;-44
2023/04/08 01:29:44;;;;;;;68.97;16.08;;;;;;;;;;5030236;28;20199;-44
2023/04/08 01:32:11;;;;;;;55.33;15.63;;;;;;;;;;5030709;28;20255;-44
2023/04/08 01:34:38;;;;;;;105.20;17.10;;;;;;;;;;5034681;28;20168;-44
2023/04/08 01:37:04;;;;;;;86.35;17.80;;;;;;;;;;5038368;28;20731;-44
2023/04/08 01:39:30;;;;;;;98.97;18.90;;;;;;;;;;5039488;28;20258;-45
2023/04/08 01:41:58;;;;;;;57.33;16.35;;;;;;;;;;5032841;28;20433;-45
2023/04/08 01:44:25;;;;;;;48.83;16.92;;;;;;;;;;5035204;28;20174;-44
2023/04/08 01:46:52;;;;;;;64.93;18.42;;;;;;;;;;5033001;28;20234;-44
2023/04/08 01:49:18;;;;;;;32.50;14.90;;;;;;;;;;5034370;28;21023;-44
2023/04/08 01:51:46;;;;;;;31.85;13.85;;;;;;;;;;5034703;28;20524;-44
2023/04/08 01:54:12;;;;;;;45.60;13.50;;;;;;;;;;5038143;28;20182;-44
2023/04/08 01:56:40;;;;;;;24.73;13.07;;;;;;;;;;5025035;28;20268;-44
2023/04/08 01:59:15;;;;;;;59.05;14.75;;;;;;;;;;5034729;28;20434;-44
2023/04/08 02:01:42;;;;;;;41.00;15.90;;;;;;;;;;5031473;28;20254;-44
2023/04/08 02:04:08;;;;;;;199.10;17.55;;;;;;;;;;5030130;28;20210;-44
2023/04/08 02:06:34;;;;;;;81.68;13.10;;;;;;;;;;5038998;28;20207;-44
2023/04/08 02:09:01;;;;;;;50.45;12.98;;;;;;;;;;5032034;28;20543;-44
2023/04/08 02:11:28;;;;;;;80.88;14.82;;;;;;;;;;5031609;28;20176;-45
2023/04/08 02:13:54;;;;;;;112.13;14.48;;;;;;;;;;5030971;28;20179;-44
2023/04/08 02:16:28;;;;;;;40.00;14.35;;;;;;;;;;5036125;28;20654;-44
2023/04/08 02:18:56;;;;;;;56.15;13.63;;;;;;;;;;5031266;28;20766;-45
2023/04/08 02:21:26;;;;;;;87.57;13.82;;;;;;;;;;5039038;28;20274;-44
2023/04/08 02:23:53;;;;;;;32.70;14.60;;;;;;;;;;5032687;28;20180;-44
2023/04/08 02:26:20;;;;;;;25.10;13.52;;;;;;;;;;5029159;28;20639;-44
2023/04/08 02:28:49;;;;;;;27.92;14.20;;;;;;;;;;5031621;28;20276;-44
2023/04/08 02:31:17;;;;;;;47.22;13.95;;;;;;;;;;5033240;28;20240;-44
2023/04/08 02:33:43;;;;;;;37.22;13.40;;;;;;;;;;5033837;28;20305;-44
2023/04/08 02:36:10;;;;;;;38.25;14.25;;;;;;;;;;5037980;28;20163;-44
2023/04/08 02:38:36;;;;;;;81.35;14.23;;;;;;;;;;5031731;28;20567;-45
2023/04/08 02:41:02;;;;;;;111.30;14.37;;;;;;;;;;5027761;28;20225;-44
2023/04/08 02:43:31;;;;;;;85.17;15.33;;;;;;;;;;5027055;28;20477;-44
2023/04/08 02:46:02;;;;;;;35.53;13.45;;;;;;;;;;5023348;28;20512;-44
2023/04/08 02:48:28;;;;;;;55.55;13.75;;;;;;;;;;5038335;28;20214;-45
2023/04/08 02:50:54;;;;;;;31.23;13.50;;;;;;;;;;5032520;28;20171;-44
2023/04/08 02:53:21;;;;;;;58.75;15.10;;;;;;;;;;5027170;28;20234;-44
2023/04/08 02:55:47;;;;;;;58.75;14.05;;;;;;;;;;5032498;28;20594;-44
2023/04/08 02:58:13;;;;;;;83.50;15.47;;;;;;;;;;5028685;28;20242;-44
2023/04/08 03:00:39;;;;;;;43.73;12.70;;;;;;;;;;5028548;28;20445;-45
2023/04/08 03:03:05;;;;;;;42.23;13.60;;;;;;;;;;5031184;28;20410;-45
2023/04/08 03:05:31;;;;;;;46.55;13.68;;;;;;;;;;5036506;28;20410;-45
2023/04/08 03:07:57;;;;;;;40.88;12.70;;;;;;;;;;5023084;28;20562;-44
2023/04/08 03:10:23;;;;;;;34.97;12.75;;;;;;;;;;5029860;28;20233;-45
2023/04/08 03:12:49;;;;;;;161.57;16.05;;;;;;;;;;5029398;28;20179;-44
2023/04/08 03:15:15;;;;;;;126.17;14.63;;;;;;;;;;5030737;28;20187;-44
2023/04/08 03:17:41;;;;;;;52.77;13.93;;;;;;;;;;5034681;28;20417;-44
2023/04/08 03:20:07;;;;;;;38.23;12.97;;;;;;;;;;5034847;28;20411;-44
2023/04/08 03:22:33;;;;;;;47.45;10.98;;;;;;;;;;5042738;28;20898;-44
2023/04/08 03:24:59;;;;;;;60.03;12.73;;;;;;;;;;5036273;28;20266;-45
2023/04/08 03:27:25;;;;;;;48.07;10.90;;;;;;;;;;5032526;28;20433;-44
2023/04/08 03:29:52;;;;;;;24.10;10.55;;;;;;;;;;5036100;28;20469;-45
2023/04/08 03:32:18;;;;;;;34.45;10.60;;;;;;;;;;5037440;28;20629;-44
2023/04/08 03:34:44;;;;;;;27.75;11.07;;;;;;;;;;5037859;28;20176;-44
2023/04/08 03:37:10;;;;;;;51.50;11.70;;;;;;;;;;5040575;28;20175;-44
2023/04/08 03:39:36;;;;;;;51.00;12.07;;;;;;;;;;5035439;28;20175;-44
2023/04/08 03:42:02;;;;;;;75.65;12.18;;;;;;;;;;5034641;28;20183;-45
2023/04/08 03:44:28;;;;;;;33.25;9.13;;;;;;;;;;5035634;28;20184;-44
2023/04/08 03:46:54;;;;;;;46.53;12.65;;;;;;;;;;5034057;28;20282;-45
2023/04/08 03:49:20;;;;;;;36.08;11.02;;;;;;;;;;5040501;28;20213;-44
2023/04/08 03:51:46;;;;;;;38.67;11.17;;;;;;;;;;5036971;28;20252;-45
2023/04/08 03:54:12;;;;;;;36.72;10.80;;;;;;;;;;5034360;28;20399;-45
2023/04/08 03:56:38;;;;;;;33.57;9.17;;;;;;;;;;5035567;28;20160;-45
2023/04/08 03:59:04;;;;;;;47.37;10.60;;;;;;;;;;5036231;28;20437;-44
2023/04/08 04:01:31;;;;;;;30.25;10.20;;;;;;;;;;5038673;28;20493;-45
2023/04/08 04:03:57;;;;;;;89.95;11.30;;;;;;;;;;5025971;28;20263;-44
2023/04/08 04:06:23;;;;;;;16.90;9.70;;;;;;;;;;5033851;28;20657;-44
2023/04/08 04:08:49;;;;;;;27.67;10.23;;;;;;;;;;5027630;28;20470;-44
2023/04/08 04:11:15;;;;;;;23.00;9.18;;;;;;;;;;5033207;28;20445;-44
2023/04/08 04:13:41;;;;;;;49.85;9.80;;;;;;;;;;5032688;28;20242;-43
2023/04/08 04:16:10;;;;;;;26.23;9.60;;;;;;;;;;5039547;28;20628;-44
2023/04/08 04:18:36;;;;;;;31.48;8.45;;;;;;;;;;5041193;28;20519;-44
2023/04/08 04:21:05;;;;;;;36.97;9.50;;;;;;;;;;5034825;28;20639;-45
2023/04/08 04:23:31;;;;;;;41.78;9.93;;;;;;;;;;5031558;28;20437;-44
2023/04/08 04:25:57;;;;;;;41.90;11.10;;;;;;;;;;5034512;28;20564;-44
2023/04/08 04:28:24;;;;;;;49.10;11.07;;;;;;;;;;5035697;28;20552;-44
2023/04/08 04:30:50;;;;;;;66.63;10.85;;;;;;;;;;5036113;28;20402;-44
2023/04/08 04:33:16;;;;;;;69.43;9.80;;;;;;;;;;5039029;28;20232;-43
2023/04/08 04:35:43;;;;;;;25.70;9.40;;;;;;;;;;5032836;28;20414;-44
2023/04/08 04:38:11;;;;;;;45.08;9.30;;;;;;;;;;5032122;28;20936;-44
2023/04/08 04:40:38;;;;;;;14.18;8.55;;;;;;;;;;5037129;28;20179;-44
2023/04/08 04:43:04;;;;;;;46.58;7.95;;;;;;;;;;5038741;28;20175;-44
2023/04/08 04:45:30;;;;;;;24.90;10.63;;;;;;;;;;5040321;28;20596;-44
2023/04/08 04:47:55;;;;;;;29.17;8.47;;;;;;;;;;5032954;28;20423;-44
2023/04/08 04:50:21;;;;;;;22.43;8.00;;;;;;;;;;5028360;28;20450;-44
2023/04/08 04:52:47;;;;;;;22.60;8.53;;;;;;;;;;5033412;28;20398;-44
2023/04/08 04:55:14;;;;;;;39.20;9.87;;;;;;;;;;5033921;28;20786;-44
2023/04/08 04:57:40;;;;;;;30.00;9.43;;;;;;;;;;5035928;28;20461;-44
2023/04/08 05:00:07;;;;;;;16.50;8.30;;;;;;;;;;5039338;28;20218;-44
2023/04/08 05:02:33;;;;;;;56.22;9.30;;;;;;;;;;5033441;28;20461;-44
2023/04/08 05:04:59;;;;;;;21.40;8.68;;;;;;;;;;5023378;28;20174;-44
2023/04/08 05:07:25;;;;;;;37.38;8.88;;;;;;;;;;5036410;28;20214;-45
2023/04/08 05:09:51;;;;;;;39.47;9.23;;;;;;;;;;5040155;28;20597;-45
2023/04/08 05:12:19;;;;;;;44.77;9.97;;;;;;;;;;5033819;28;20411;-45
2023/04/08 05:14:45;;;;;;;34.95;9.80;;;;;;;;;;5029806;28;20762;-44
2023/04/08 05:17:11;;;;;;;35.87;11.00;;;;;;;;;;5028475;28;20223;-45
2023/04/08 05:19:37;;;;;;;48.37;10.37;;;;;;;;;;5036138;28;20402;-44
2023/04/08 05:22:03;;;;;;;66.25;10.38;;;;;;;;;;5035663;28;20454;-44
2023/04/08 05:24:29;;;;;;;50.77;9.90;;;;;;;;;;5031328;28;20589;-44
2023/04/08 05:26:56;;;;;;;80.18;10.57;;;;;;;;;;5030575;28;20407;-44
2023/04/08 05:29:22;;;;;;;78.55;11.82;;;;;;;;;;5037055;28;20192;-44
2023/04/08 05:31:48;;;;;;;22.85;8.95;;;;;;;;;;5036912;28;20183;-44
2023/04/08 05:34:18;;;;;;;56.55;11.55;;;;;;;;;;5028413;28;20581;-44
2023/04/08 05:36:45;;;;;;;40.30;9.40;;;;;;;;;;5031526;28;20186;-44
2023/04/08 05:39:11;;;;;;;38.13;9.88;;;;;;;;;;5029642;28;20261;-45
2023/04/08 05:41:37;;;;;;;64.07;10.90;;;;;;;;;;5030920;28;20183;-44
2023/04/08 05:44:03;;;;;;;42.73;10.37;;;;;;;;;;5040419;28;20398;-44
2023/04/08 05:46:29;;;;;;;44.50;9.27;;;;;;;;;;5036598;28;20498;-45
2023/04/08 05:48:55;;;;;;;43.83;10.00;;;;;;;;;;5026437;28;21011;-44
2023/04/08 05:51:21;;;;;;;23.05;9.40;;;;;;;;;;5030542;28;20493;-43
2023/04/08 05:53:47;;;;;;;46.30;11.57;;;;;;;;;;5034613;28;20583;-43
2023/04/08 05:56:13;;;;;;;15.13;8.50;;;;;;;;;;5034152;28;20505;-44
2023/04/08 05:58:39;;;;;;;43.90;11.07;;;;;;;;;;5036840;28;20487;-43
2023/04/08 06:01:06;;;;;;;35.35;10.13;;;;;;;;;;5032601;28;20457;-43
2023/04/08 06:03:33;;;;;;;21.40;9.93;;;;;;;;;;5028478;28;20460;-43
2023/04/08 06:05:59;;;;;;;29.17;11.65;;;;;;;;;;5027993;28;20525;-43
2023/04/08 06:08:25;;;;;;;35.83;12.30;;;;;;;;;;5034967;28;20207;-43
2023/04/08 06:10:52;;;;;;;27.13;10.70;;;;;;;;;;5037190;28;20860;-44
2023/04/08 06:13:19;;;;;;;62.00;10.98;;;;;;;;;;5038264;28;20851;-43
2023/04/08 06:15:47;;;;;;;42.63;13.03;;;;;;;;;;5032105;28;20321;-44
2023/04/08 06:18:13;;;;;;;41.30;11.65;;;;;;;;;;5027956;28;20492;-44
2023/04/08 06:20:39;;;;;;;24.10;10.77;;;;;;;;;;5035422;28;20198;-43
2023/04/08 06:23:05;;;;;;;27.80;12.30;;;;;;;;;;5031197;28;20412;-43
2023/04/08 06:25:31;;;;;;;41.88;12.23;;;;;;;;;;5035125;28;20606;-43
2023/04/08 06:27:57;;;;;;;59.17;13.10;;;;;;;;;;5037760;28;20203;-43
2023/04/08 06:30:23;;;;;;;30.70;12.17;;;;;;;;;;5031837;28;20183;-44
2023/04/08 06:32:49;;;;;;;25.03;12.93;;;;;;;;;;5025530;28;20418;-43
2023/04/08 06:35:15;;;;;;;36.00;13.23;;;;;;;;;;5031047;28;20415;-43
2023/04/08 06:37:41;;;;;;;49.87;13.70;;;;;;;;;;5032403;28;20433;-43
2023/04/08 06:40:07;;;;;;;45.57;12.87;;;;;;;;;;5030984;28;20910;-43
2023/04/08 06:42:33;;;;;;;46.23;14.03;;;;;;;;;;5032247;28;20414;-43
2023/04/08 06:44:59;;;;;;;29.90;12.03;;;;;;;;;;5027441;28;20400;-42
2023/04/08 06:47:25;;;;;;;40.90;13.53;;;;;;;;;;5031067;28;20434;-44
2023/04/08 06:49:51;;;;;;;52.20;14.27;;;;;;;;;;5030663;28;20514;-45
2023/04/08 06:52:17;;;;;;;38.83;15.70;;;;;;;;;;5037228;28;20426;-44
2023/04/08 06:54:43;;;;;;;26.00;14.40;;;;;;;;;;5041264;28;20405;-43
2023/04/08 06:57:10;;;;;;;33.57;13.47;;;;;;;;;;5027593;28;20812;-43
2023/04/08 06:59:37;;;;;;;35.47;14.07;;;;;;;;;;5031064;28;20484;-44
2023/04/08 07:02:02;;;;;;;27.67;14.27;;;;;;;;;;5030761;28;20407;-43
2023/04/08 07:04:28;;;;;;;29.80;14.80;;;;;;;;;;5038938;28;20418;-44
2023/04/08 07:06:54;;;;;;;26.17;13.07;;;;;;;;;;5039912;28;20498;-45
2023/04/08 07:09:20;;;;;;;36.30;14.27;;;;;;;;;;5044583;28;20516;-42
2023/04/08 07:11:46;;;;;;;23.00;14.17;;;;;;;;;;5035242;28;20457;-43
2023/04/08 07:14:12;;;;;;;29.37;15.20;;;;;;;;;;5030558;28;20414;-43
2023/04/08 07:16:38;;;;;;;27.23;15.10;;;;;;;;;;5033819;28;20893;-44
2023/04/08 07:19:04;;;;;;;32.50;15.97;;;;;;;;;;5033364;28;20443;-43
2023/04/08 07:21:30;;;;;;;28.50;13.87;;;;;;;;;;5038529;28;20767;-43
2023/04/08 07:23:56;;;;;;;32.63;16.17;;;;;;;;;;5040479;28;20458;-43
2023/04/08 07:26:22;;;;;;;35.93;18.00;;;;;;;;;;5035389;28;20435;-44
2023/04/08 07:28:48;;;;;;;42.73;20.30;;;;;;;;;;5029712;28;20463;-44
2023/04/08 07:31:15;;;;;;;39.37;19.00;;;;;;;;;;5033487;28;20446;-44
2023/04/08 07:33:41;;;;;;;40.13;19.60;;;;;;;;;;5036759;28;20408;-44
2023/04/08 07:36:08;;;;;;;38.53;19.80;;;;;;;;;;5040103;28;20433;-43
2023/04/08 07:38:34;;;;;;;49.50;21.47;;;;;;;;;;5034383;28;20458;-43
2023/04/08 07:41:00;;;;;;;44.93;20.50;;;;;;;;;;5030358;28;20844;-43
2023/04/08 07:43:26;;;;;;;43.47;22.53;;;;;;;;;;5032142;28;20443;-43
2023/04/08 07:45:52;;;;;;;41.43;21.10;;;;;;;;;;5034241;28;20935;-43
2023/04/08 07:48:18;;;;;;;45.77;23.53;;;;;;;;;;5035800;28;20537;-43
2023/04/08 07:50:45;;;;;;;45.93;21.10;;;;;;;;;;5039488;28;20411;-43
2023/04/08 07:53:12;;;;;;;48.37;23.80;;;;;;;;;;5034335;28;20788;-43
2023/04/08 07:55:39;;;;;;;49.57;24.47;;;;;;;;;;5035806;28;20498;-44
2023/04/08 07:58:05;;;;;;;50.37;24.13;;;;;;;;;;5029511;28;20819;-43
2023/04/08 08:00:32;;;;;;;43.97;25.40;;;;;;;;;;5037168;28;20509;-43
2023/04/08 08:02:58;;;;;;;45.63;26.60;;;;;;;;;;5030512;28;20410;-43
2023/04/08 08:05:24;;;;;;;40.63;23.67;;;;;;;;;;5033396;28;20438;-44
2023/04/08 08:07:49;;;;;;;41.97;22.50;;;;;;;;;;5033581;28;20432;-43
2023/04/08 08:10:15;;;;;;;40.10;23.57;;;;;;;;;;5028873;28;20994;-43
2023/04/08 08:12:41;;;;;;;36.20;22.13;;;;;;;;;;5031970;28;20975;-43
2023/04/08 08:15:08;;;;;;;33.77;20.97;;;;;;;;;;5032163;28;20410;-44
2023/04/08 08:17:34;;;;;;;29.97;18.57;;;;;;;;;;5036230;28;20464;-44
2023/04/08 08:20:00;;;;;;;30.97;20.33;;;;;;;;;;5034817;28;20421;-44
2023/04/08 08:22:26;;;;;;;28.87;18.30;;;;;;;;;;5037324;28;20410;-45
2023/04/08 08:24:58;;;;;;;26.87;17.83;;;;;;;;;;5033506;28;20827;-45
2023/04/08 08:27:25;;;;;;;31.70;18.70;;;;;;;;;;5033847;28;20446;-44
2023/04/08 08:29:51;;;;;;;29.03;18.40;;;;;;;;;;5036007;28;20975;-44
2023/04/08 08:32:17;;;;;;;27.93;15.50;;;;;;;;;;5032061;28;20478;-43
2023/04/08 08:34:43;;;;;;;21.83;16.30;;;;;;;;;;5033509;28;20420;-44
2023/04/08 08:37:09;;;;;;;30.63;18.80;;;;;;;;;;5038479;28;20502;-44
2023/04/08 08:39:35;;;;;;;25.10;16.57;;;;;;;;;;5039909;28;20414;-43
2023/04/08 08:42:01;;;;;;;27.97;16.97;;;;;;;;;;5033203;28;20501;-43
2023/04/08 08:44:27;;;;;;;29.87;19.80;;;;;;;;;;5030107;28;20445;-43
2023/04/08 08:46:53;;;;;;;26.47;18.17;;;;;;;;;;5032922;28;20410;-43
2023/04/08 08:49:19;;;;;;;28.60;17.43;;;;;;;;;;5034880;28;20575;-43
2023/04/08 08:51:46;;;;;;;27.33;16.33;;;;;;;;;;5035056;28;20877;-44
2023/04/08 08:54:12;;;;;;;25.67;16.20;;;;;;;;;;5039291;28;20414;-43
2023/04/08 08:56:38;;;;;;;24.40;15.27;;;;;;;;;;5032924;28;20917;-44
2023/04/08 08:59:04;;;;;;;19.70;16.10;;;;;;;;;;5035281;28;20426;-44
2023/04/08 09:01:35;;;;;;;25.23;17.83;;;;;;;;;;5032969;28;20828;-43
2023/04/08 09:04:07;;;;;;;24.37;17.40;;;;;;;;;;5025496;28;20433;-43
2023/04/08 09:06:32;;;;;;;25.67;19.20;;;;;;;;;;5039429;28;20413;-43
2023/04/08 09:08:58;;;;;;;24.80;16.43;;;;;;;;;;5033318;28;20469;-43
2023/04/08 09:11:25;;;;;;;20.43;15.50;;;;;;;;;;5032558;28;20937;-43
2023/04/08 09:13:51;;;;;;;22.60;16.10;;;;;;;;;;5030037;28;20423;-43
2023/04/08 09:16:18;;;;;;;21.33;15.93;;;;;;;;;;5035673;28;20407;-43
2023/04/08 09:18:45;;;;;;;22.13;16.10;;;;;;;;;;5035571;28;20903;-44
2023/04/08 09:21:12;;;;;;;16.80;14.30;;;;;;;;;;5037393;28;20966;-44
2023/04/08 09:23:42;;;;;;;21.43;14.80;;;;;;;;;;5032604;28;20508;-43
2023/04/08 09:26:13;;;;;;;17.70;13.57;;;;;;;;;;5029322;28;20419;-43
2023/04/08 09:28:40;;;;;;;17.50;14.20;;;;;;;;;;5031796;28;20480;-44
2023/04/08 09:31:19;;;;;;;20.43;16.70;;;;;;;;;;5030453;28;20426;-43
2023/04/08 09:33:47;;;;;;;16.97;14.17;;;;;;;;;;5031950;28;20407;-44
2023/04/08 09:36:13;;;;;;;17.47;14.67;;;;;;;;;;5032577;28;20410;-44
2023/04/08 09:38:39;;;;;;;16.47;13.77;;;;;;;;;;5031472;28;20441;-43
2023/04/08 09:41:10;;;;;;;17.33;13.80;;;;;;;;;;5029898;28;20419;-44
2023/04/08 09:43:39;;;;;;;17.47;13.23;;;;;;;;;;5031856;28;20406;-45
2023/04/08 09:46:10;;;;;;;18.30;13.33;;;;;;;;;;5034318;28;20515;-45
2023/04/08 09:48:40;;;;;;;15.93;12.20;;;;;;;;;;5029419;28;20504;-45
2023/04/08 09:51:06;;;;;;;17.20;13.00;;;;;;;;;;5029348;28;20479;-45
2023/04/08 09:53:37;;;;;;;17.27;13.67;;;;;;;;;;5027301;28;20407;-44
2023/04/08 09:56:06;;;;;;;15.40;12.33;;;;;;;;;;5025954;28;20404;-44
2023/04/08 09:58:41;;;;;;;16.07;12.70;;;;;;;;;;5034330;28;20438;-44
2023/04/08 10:01:08;;;;;;;18.13;12.17;;;;;;;;;;5035982;28;20441;-45
2023/04/08 10:03:39;;;;;;;16.10;12.13;;;;;;;;;;5038123;28;20430;-44
2023/04/08 10:06:07;;;;;;;16.73;13.40;;;;;;;;;;5032246;28;20407;-44
2023/04/08 10:08:33;;;;;;;16.03;11.60;;;;;;;;;;5027598;28;20454;-45
2023/04/08 10:10:59;;;;;;;18.50;12.30;;;;;;;;;;5031239;28;20433;-44
2023/04/08 10:13:27;;;;;;;16.43;12.70;;;;;;;;;;5033827;28;20410;-44
2023/04/08 10:16:14;;;;;;;12.90;11.50;;;;;;;;;;5032050;28;20426;-44
2023/04/08 10:18:41;;;;;;;13.30;11.13;;;;;;;;;;5031863;28;20840;-44
2023/04/08 10:21:27;;;;;;;14.37;10.27;;;;;;;;;;5026676;28;20454;-44
2023/04/08 10:23:56;;;;;;;13.30;11.00;;;;;;;;;;5030425;28;20406;-45
2023/04/08 10:26:33;;;;;;;19.23;13.53;;;;;;;;;;5037356;28;20808;-46
2023/04/08 10:29:17;;;;;;;12.97;11.30;;;;;;;;;;5031776;28;20497;-45
2023/04/08 10:31:43;;;;;;;14.40;11.00;;;;;;;;;;5040611;28;20445;-45
2023/04/08 10:34:19;;;;;;;14.23;10.60;;;;;;;;;;5035080;28;20413;-46
2023/04/08 10:36:45;;;;;;;14.60;11.50;;;;;;;;;;5030255;28;20416;-45
2023/04/08 10:39:13;;;;;;;14.70;10.27;;;;;;;;;;5033722;28;20809;-44
2023/04/08 10:41:42;;;;;;;16.93;10.13;;;;;;;;;;5032078;28;20428;-46
2023/04/08 10:44:15;;;;;;;13.70;11.10;;;;;;;;;;5036850;28;20829;-47
2023/04/08 10:46:42;;;;;;;13.13;10.63;;;;;;;;;;5036343;28;20434;-46
2023/04/08 10:49:08;;;;;;;12.23;10.60;;;;;;;;;;5028813;28;20465;-45
2023/04/08 10:51:34;;;;;;;13.77;11.00;;;;;;;;;;5034663;28;20410;-45
2023/04/08 10:54:13;;;;;;;13.10;10.30;;;;;;;;;;5033173;28;20410;-44
2023/04/08 10:56:49;;;;;;;14.47;9.87;;;;;;;;;;5027980;28;20425;-46
2023/04/08 10:59:16;;;;;;;13.20;9.90;;;;;;;;;;5039415;28;20438;-47
2023/04/08 11:01:43;;;;;;;10.10;9.10;;;;;;;;;;5033366;28;20410;-46
2023/04/08 11:04:17;;;;;;;13.13;9.80;;;;;;;;;;5035709;28;20418;-45
2023/04/08 11:06:43;;;;;;;18.40;11.07;;;;;;;;;;5037097;28;20908;-47
2023/04/08 11:09:09;;;;;;;15.17;10.20;;;;;;;;;;5031797;28;20473;-45
2023/04/08 11:11:36;;;;;;;15.17;11.53;;;;;;;;;;5032264;28;20430;-45
2023/04/08 11:14:03;;;;;;;14.63;11.90;;;;;;;;;;5039778;28;20415;-45
2023/04/08 11:16:30;;;;;;;18.50;13.97;;;;;;;;;;5031201;28;20705;-46
2023/04/08 11:18:56;;;;;;;16.60;13.57;;;;;;;;;;5030503;28;20525;-46
2023/04/08 11:21:28;;;;;;;19.13;14.97;;;;;;;;;;5030547;28;20415;-47
2023/04/08 11:23:55;;;;;;;21.20;14.80;;;;;;;;;;5033337;28;20474;-47
2023/04/08 11:26:21;;;;;;;17.90;13.40;;;;;;;;;;5036324;28;20407;-45
2023/04/08 11:28:50;;;;;;;18.80;13.90;;;;;;;;;;5034759;28;20556;-45
2023/04/08 11:31:17;;;;;;;18.60;16.00;;;;;;;;;;5026953;28;20464;-47
2023/04/08 11:33:49;;;;;;;22.27;17.00;;;;;;;;;;5029859;28;20423;-46
2023/04/08 11:36:17;;;;;;;25.27;17.90;;;;;;;;;;5032326;28;20443;-46
2023/04/08 11:38:43;;;;;;;27.20;18.30;;;;;;;;;;5037607;28;20455;-47
2023/04/08 11:41:11;;;;;;;28.67;19.20;;;;;;;;;;5042029;28;20419;-46
2023/04/08 11:43:39;;;;;;;23.53;18.23;;;;;;;;;;5037212;28;20418;-47
2023/04/08 11:46:09;;;;;;;24.93;18.53;;;;;;;;;;5032707;28;20988;-47
2023/04/08 11:48:35;;;;;;;27.23;18.50;;;;;;;;;;5035452;28;20461;-47
2023/04/08 11:51:03;;;;;;;26.40;19.37;;;;;;;;;;5033588;28;20766;-47
2023/04/08 11:53:28;;;;;;;24.40;17.77;;;;;;;;;;5038779;28;20417;-47
2023/04/08 11:55:55;;;;;;;24.00;19.47;;;;;;;;;;5033439;28;20429;-46
2023/04/08 11:58:21;;;;;;;24.30;19.00;;;;;;;;;;5031414;28;20908;-46
2023/04/08 12:00:48;;;;;;;26.63;19.97;;;;;;;;;;5031138;28;20423;-48
2023/04/08 12:03:14;;;;;;;29.40;22.90;;;;;;;;;;5036613;28;20831;-46
2023/04/08 12:05:41;;;;;;;26.60;20.40;;;;;;;;;;5034475;28;20427;-46
2023/04/08 12:08:07;;;;;;;26.50;21.10;;;;;;;;;;5036527;28;20524;-46
2023/04/08 12:10:33;;;;;;;26.23;18.47;;;;;;;;;;5038136;28;20536;-45
2023/04/08 12:12:59;;;;;;;28.60;21.83;;;;;;;;;;5032748;28;20403;-45
2023/04/08 12:15:25;;;;;;;29.10;21.63;;;;;;;;;;5035871;28;20485;-46
2023/04/08 12:17:51;;;;;;;26.73;21.53;;;;;;;;;;5034320;28;20523;-46
2023/04/08 12:20:17;;;;;;;25.00;18.90;;;;;;;;;;5033897;28;20445;-46
2023/04/08 12:22:43;;;;;;;27.90;20.90;;;;;;;;;;5040301;28;20475;-45
2023/04/08 12:25:09;;;;;;;23.87;18.50;;;;;;;;;;5034510;28;20991;-48
2023/04/08 12:27:35;;;;;;;22.93;17.70;;;;;;;;;;5030660;28;20431;-47
2023/04/08 12:30:02;;;;;;;21.60;17.00;;;;;;;;;;5036579;28;20555;-47
2023/04/08 12:32:28;;;;;;;21.70;16.27;;;;;;;;;;5041127;28;20406;-47
2023/04/08 12:34:54;;;;;;;26.87;17.37;;;;;;;;;;5035413;28;20802;-48
2023/04/08 12:37:21;;;;;;;21.40;14.90;;;;;;;;;;5040318;28;20533;-47
2023/04/08 12:39:47;;;;;;;17.17;15.30;;;;;;;;;;5036326;28;20468;-48
2023/04/08 12:42:13;;;;;;;16.40;12.73;;;;;;;;;;5031062;28;20411;-46
2023/04/08 12:44:39;;;;;;;18.97;14.47;;;;;;;;;;5034917;28;20908;-46
2023/04/08 12:47:05;;;;;;;22.10;17.00;;;;;;;;;;5033981;28;20416;-47
2023/04/08 12:49:31;;;;;;;19.60;16.57;;;;;;;;;;5038382;28;20454;-46
2023/04/08 12:51:57;;;;;;;22.97;16.90;;;;;;;;;;5033575;28;20494;-47
2023/04/08 12:54:23;;;;;;;22.30;16.30;;;;;;;;;;5035503;28;20403;-44
2023/04/08 12:56:49;;;;;;;27.33;19.60;;;;;;;;;;5037055;28;20434;-46
2023/04/08 12:59:15;;;;;;;27.20;19.47;;;;;;;;;;5032664;28;20459;-46
2023/04/08 13:01:41;;;;;;;22.30;18.20;;;;;;;;;;5031609;28;20415;-47
2023/04/08 13:04:07;;;;;;;27.50;20.83;;;;;;;;;;5036831;28;20795;-46
2023/04/08 13:06:33;;;;;;;24.90;20.37;;;;;;;;;;5038272;28;20428;-48
2023/04/08 13:08:59;;;;;;;23.70;17.93;;;;;;;;;;5042400;28;20457;-48
2023/04/08 13:11:25;;;;;;;20.60;16.10;;;;;;;;;;5035643;28;20428;-45
2023/04/08 13:13:51;;;;;;;22.80;18.50;;;;;;;;;;5032379;28;20412;-46
2023/04/08 13:16:18;;;;;;;24.33;19.27;;;;;;;;;;5035965;28;20415;-47
2023/04/08 13:18:45;;;;;;;25.47;19.33;;;;;;;;;;5038243;28;20434;-46
2023/04/08 13:21:11;;;;;;;23.20;20.30;;;;;;;;;;5040427;28;20416;-46
2023/04/08 13:23:37;;;;;;;24.50;21.03;;;;;;;;;;5037934;28;20443;-45
2023/04/08 13:26:03;;;;;;;27.00;21.13;;;;;;;;;;5035318;28;20822;-46
2023/04/08 13:28:29;;;;;;;32.00;22.60;;;;;;;;;;5038003;28;20469;-47
2023/04/08 13:30:55;;;;;;;23.10;18.13;;;;;;;;;;5035225;28;20435;-46
2023/04/08 13:33:21;;;;;;;22.50;16.57;;;;;;;;;;5039652;28;20539;-47
2023/04/08 13:35:47;;;;;;;20.10;15.70;;;;;;;;;;5042940;28;20421;-46
2023/04/08 13:38:13;;;;;;;23.87;18.87;;;;;;;;;;5036098;28;20426;-48
2023/04/08 13:40:39;;;;;;;29.97;20.83;;;;;;;;;;5033330;28;20418;-47
2023/04/08 13:43:05;;;;;;;29.20;21.13;;;;;;;;;;5032945;28;20422;-45
2023/04/08 13:45:31;;;;;;;24.13;20.27;;;;;;;;;;5038527;28;20410;-45
2023/04/08 13:47:58;;;;;;;30.13;21.90;;;;;;;;;;5038436;28;20850;-46
2023/04/08 13:50:24;;;;;;;21.90;16.27;;;;;;;;;;5033750;28;20511;-46
2023/04/08 13:52:50;;;;;;;18.40;14.03;;;;;;;;;;5034510;28;20943;-46
2023/04/08 13:55:16;;;;;;;15.60;13.03;;;;;;;;;;5032192;28;20748;-46
2023/04/08 13:57:42;;;;;;;22.30;15.70;;;;;;;;;;5030224;28;20464;-45
2023/04/08 14:00:09;;;;;;;22.13;16.80;;;;;;;;;;5035891;28;20463;-45
2023/04/08 14:02:35;;;;;;;18.17;14.40;;;;;;;;;;5038169;28;20875;-46
2023/04/08 14:05:01;;;;;;;17.57;12.23;;;;;;;;;;5043038;28;20414;-46
2023/04/08 14:07:27;;;;;;;16.27;13.27;;;;;;;;;;5035926;28;20434;-45
2023/04/08 14:09:53;;;;;;;14.63;11.73;;;;;;;;;;5034693;28;20488;-45
2023/04/08 14:12:19;;;;;;;18.10;13.27;;;;;;;;;;5036447;28;20466;-47
2023/04/08 14:14:45;;;;;;;15.50;12.50;;;;;;;;;;5032969;28;20902;-46
2023/04/08 14:17:11;;;;;;;22.40;13.60;;;;;;;;;;5034079;28;20429;-47